X  Close Metar Aviation Weather Data     EINN Shannon Airport
Temperature
15°C Temperature
14°C Dewpoint
94% Humidity



Wind
21 KM/H
13 MPH
6 M/S
11 KTS



170°
South
Current Conditions

Partly Cloudy Partly Cloudy
Pressure 1008.92 (hPa) - 29.79 (inHg)
Visibility 6.2 (mile) - 10 (km)
Airport
Airport-code EINN

Location: Shannon Airport
Distance: 177 (km)

Metar:
EINN 162330Z 17011KT 9999 FEW015 OVC020 15/14 Q1009 NOSIG

Time: 17-10-2021 00:30 IST